sensor_id;sensor_type;location;lat;lon;timestamp;temperature;humidity
1135;DHT22;556;53.550;10.048;2022-09-16T00:02:12;14.70;54.70
1135;DHT22;556;53.550;10.048;2022-09-16T00:07:08;14.70;54.70
1135;DHT22;556;53.550;10.048;2022-09-16T00:09:36;14.70;55.20
1135;DHT22;556;53.550;10.048;2022-09-16T00:12:04;14.60;54.60
1135;DHT22;556;53.550;10.048;2022-09-16T00:14:31;14.70;55.80
1135;DHT22;556;53.550;10.048;2022-09-16T00:17:02;14.60;55.30
1135;DHT22;556;53.550;10.048;2022-09-16T00:19:35;14.60;54.90
1135;DHT22;556;53.550;10.048;2022-09-16T00:22:02;14.60;54.90
1135;DHT22;556;53.550;10.048;2022-09-16T00:24:31;14.40;54.70
1135;DHT22;556;53.550;10.048;2022-09-16T00:26:59;14.50;54.80
1135;DHT22;556;53.550;10.048;2022-09-16T00:29:26;14.50;54.80
1135;DHT22;556;53.550;10.048;2022-09-16T00:34:21;14.60;54.90
1135;DHT22;556;53.550;10.048;2022-09-16T00:39:17;14.60;54.80
1135;DHT22;556;53.550;10.048;2022-09-16T00:44:50;14.90;54.80
1135;DHT22;556;53.550;10.048;2022-09-16T00:47:22;14.90;55.30
1135;DHT22;556;53.550;10.048;2022-09-16T00:49:54;14.90;54.60
1135;DHT22;556;53.550;10.048;2022-09-16T00:52:24;14.80;54.60
1135;DHT22;556;53.550;10.048;2022-09-16T00:54:52;14.60;55.30
1135;DHT22;556;53.550;10.048;2022-09-16T00:57:21;14.40;55.60
1135;DHT22;556;53.550;10.048;2022-09-16T00:59:52;14.30;55.30
1135;DHT22;556;53.550;10.048;2022-09-16T01:02:21;14.10;55.30
1135;DHT22;556;53.550;10.048;2022-09-16T01:04:53;14.00;55.40
1135;DHT22;556;53.550;10.048;2022-09-16T01:07:26;13.90;55.40
1135;DHT22;556;53.550;10.048;2022-09-16T01:09:56;13.90;55.90
1135;DHT22;556;53.550;10.048;2022-09-16T01:12:27;13.90;56.00
1135;DHT22;556;53.550;10.048;2022-09-16T01:14:54;13.90;56.00
1135;DHT22;556;53.550;10.048;2022-09-16T01:17:33;14.00;55.60
1135;DHT22;556;53.550;10.048;2022-09-16T01:23:20;14.00;55.80
1135;DHT22;556;53.550;10.048;2022-09-16T01:26:00;13.90;55.40
1135;DHT22;556;53.550;10.048;2022-09-16T01:28:52;13.80;55.50
1135;DHT22;556;53.550;10.048;2022-09-16T01:31:29;13.80;56.00
1135;DHT22;556;53.550;10.048;2022-09-16T01:34:06;13.70;55.60
1135;DHT22;556;53.550;10.048;2022-09-16T01:36:43;13.70;56.30
1135;DHT22;556;53.550;10.048;2022-09-16T01:39:21;13.70;56.20
1135;DHT22;556;53.550;10.048;2022-09-16T01:42:00;13.70;55.80
1135;DHT22;556;53.550;10.048;2022-09-16T01:44:40;13.70;55.80
1135;DHT22;556;53.550;10.048;2022-09-16T01:47:16;13.70;55.80
1135;DHT22;556;53.550;10.048;2022-09-16T01:49:56;13.80;55.80
1135;DHT22;556;53.550;10.048;2022-09-16T01:52:35;13.90;56.20
1135;DHT22;556;53.550;10.048;2022-09-16T01:55:07;13.90;55.60
1135;DHT22;556;53.550;10.048;2022-09-16T01:57:38;13.90;55.40
1135;DHT22;556;53.550;10.048;2022-09-16T02:00:09;14.00;56.00
1135;DHT22;556;53.550;10.048;2022-09-16T02:02:44;13.90;55.50
1135;DHT22;556;53.550;10.048;2022-09-16T02:05:15;13.90;56.00
1135;DHT22;556;53.550;10.048;2022-09-16T02:07:50;13.90;56.10
1135;DHT22;556;53.550;10.048;2022-09-16T02:10:23;13.80;55.60
1135;DHT22;556;53.550;10.048;2022-09-16T02:13:01;13.80;56.10
1135;DHT22;556;53.550;10.048;2022-09-16T02:15:32;13.80;55.70
1135;DHT22;556;53.550;10.048;2022-09-16T02:18:04;13.80;55.70
1135;DHT22;556;53.550;10.048;2022-09-16T02:20:38;13.80;56.20
1135;DHT22;556;53.550;10.048;2022-09-16T02:23:11;13.90;55.80
1135;DHT22;556;53.550;10.048;2022-09-16T02:25:41;13.90;55.80
1135;DHT22;556;53.550;10.048;2022-09-16T02:28:12;13.90;56.20
1135;DHT22;556;53.550;10.048;2022-09-16T02:30:43;13.90;56.20
1135;DHT22;556;53.550;10.048;2022-09-16T02:33:15;13.90;56.30
1135;DHT22;556;53.550;10.048;2022-09-16T02:35:46;14.00;56.30
1135;DHT22;556;53.550;10.048;2022-09-16T02:40:47;13.90;55.80
1135;DHT22;556;53.550;10.048;2022-09-16T02:43:18;14.00;56.40
1135;DHT22;556;53.550;10.048;2022-09-16T02:45:50;14.00;56.30
1135;DHT22;556;53.550;10.048;2022-09-16T02:48:28;14.10;56.40
1135;DHT22;556;53.550;10.048;2022-09-16T02:51:03;14.10;56.30
1135;DHT22;556;53.550;10.048;2022-09-16T02:53:42;14.00;55.80
1135;DHT22;556;53.550;10.048;2022-09-16T02:56:16;13.80;56.10
1135;DHT22;556;53.550;10.048;2022-09-16T02:58:47;13.80;56.60
1135;DHT22;556;53.550;10.048;2022-09-16T03:01:16;13.70;56.80
1135;DHT22;556;53.550;10.048;2022-09-16T03:03:46;13.60;56.50
1135;DHT22;556;53.550;10.048;2022-09-16T03:06:19;13.60;57.00
1135;DHT22;556;53.550;10.048;2022-09-16T03:08:48;13.50;57.00
1135;DHT22;556;53.550;10.048;2022-09-16T03:11:35;13.50;57.00
1135;DHT22;556;53.550;10.048;2022-09-16T03:14:17;13.50;56.70
1135;DHT22;556;53.550;10.048;2022-09-16T03:16:54;13.50;57.10
1135;DHT22;556;53.550;10.048;2022-09-16T03:19:31;13.60;57.10
1135;DHT22;556;53.550;10.048;2022-09-16T03:22:04;13.60;57.00
1135;DHT22;556;53.550;10.048;2022-09-16T03:24:40;13.70;57.10
1135;DHT22;556;53.550;10.048;2022-09-16T03:27:11;13.60;57.00
1135;DHT22;556;53.550;10.048;2022-09-16T03:29:44;13.60;57.10
1135;DHT22;556;53.550;10.048;2022-09-16T03:32:17;13.50;56.70
1135;DHT22;556;53.550;10.048;2022-09-16T03:34:51;13.50;56.70
1135;DHT22;556;53.550;10.048;2022-09-16T03:37:21;13.50;57.20
1135;DHT22;556;53.550;10.048;2022-09-16T03:39:50;13.50;56.70
1135;DHT22;556;53.550;10.048;2022-09-16T03:42:19;13.50;56.70
1135;DHT22;556;53.550;10.048;2022-09-16T03:44:46;13.50;57.20
1135;DHT22;556;53.550;10.048;2022-09-16T03:47:14;13.60;57.30
1135;DHT22;556;53.550;10.048;2022-09-16T03:49:41;13.50;57.20
1135;DHT22;556;53.550;10.048;2022-09-16T03:52:10;13.50;56.80
1135;DHT22;556;53.550;10.048;2022-09-16T03:54:37;13.50;57.20
1135;DHT22;556;53.550;10.048;2022-09-16T03:57:05;13.50;57.20
1135;DHT22;556;53.550;10.048;2022-09-16T03:59:32;13.50;56.80
1135;DHT22;556;53.550;10.048;2022-09-16T04:01:59;13.60;57.40
1135;DHT22;556;53.550;10.048;2022-09-16T04:04:26;13.70;57.30
1135;DHT22;556;53.550;10.048;2022-09-16T04:06:53;13.80;56.80
1135;DHT22;556;53.550;10.048;2022-09-16T04:09:22;13.80;57.20
1135;DHT22;556;53.550;10.048;2022-09-16T04:11:49;13.90;57.20
1135;DHT22;556;53.550;10.048;2022-09-16T04:14:16;13.90;57.10
1135;DHT22;556;53.550;10.048;2022-09-16T04:16:43;13.90;57.10
1135;DHT22;556;53.550;10.048;2022-09-16T04:19:11;13.90;57.20
1135;DHT22;556;53.550;10.048;2022-09-16T04:21:39;13.70;57.20
1135;DHT22;556;53.550;10.048;2022-09-16T04:24:06;13.60;57.00
1135;DHT22;556;53.550;10.048;2022-09-16T04:26:36;13.60;57.50
1135;DHT22;556;53.550;10.048;2022-09-16T04:29:03;13.50;57.50
1135;DHT22;556;53.550;10.048;2022-09-16T04:31:30;13.50;57.70
1135;DHT22;556;53.550;10.048;2022-09-16T04:33:59;13.40;57.30
1135;DHT22;556;53.550;10.048;2022-09-16T04:36:26;13.30;57.30
1135;DHT22;556;53.550;10.048;2022-09-16T04:38:53;13.40;57.30
1135;DHT22;556;53.550;10.048;2022-09-16T04:41:22;13.30;57.70
1135;DHT22;556;53.550;10.048;2022-09-16T04:43:52;13.20;57.30
1135;DHT22;556;53.550;10.048;2022-09-16T04:46:21;13.30;57.90
1135;DHT22;556;53.550;10.048;2022-09-16T04:48:48;13.30;57.80
1135;DHT22;556;53.550;10.048;2022-09-16T04:51:16;13.30;57.50
1135;DHT22;556;53.550;10.048;2022-09-16T04:53:44;13.40;57.40
1135;DHT22;556;53.550;10.048;2022-09-16T04:56:14;13.40;57.80
1135;DHT22;556;53.550;10.048;2022-09-16T04:58:42;13.50;57.90
1135;DHT22;556;53.550;10.048;2022-09-16T05:01:12;13.50;57.80
1135;DHT22;556;53.550;10.048;2022-09-16T05:03:40;13.60;57.80
1135;DHT22;556;53.550;10.048;2022-09-16T05:06:09;13.60;57.30
1135;DHT22;556;53.550;10.048;2022-09-16T05:08:37;13.60;57.70
1135;DHT22;556;53.550;10.048;2022-09-16T05:11:06;13.70;57.70
1135;DHT22;556;53.550;10.048;2022-09-16T05:13:34;13.70;57.70
1135;DHT22;556;53.550;10.048;2022-09-16T05:16:03;13.70;57.70
1135;DHT22;556;53.550;10.048;2022-09-16T05:18:32;13.70;57.20
1135;DHT22;556;53.550;10.048;2022-09-16T05:21:00;13.70;57.20
1135;DHT22;556;53.550;10.048;2022-09-16T05:23:27;13.70;57.60
1135;DHT22;556;53.550;10.048;2022-09-16T05:25:54;13.70;57.70
1135;DHT22;556;53.550;10.048;2022-09-16T05:28:21;13.70;57.20
1135;DHT22;556;53.550;10.048;2022-09-16T05:30:48;13.70;57.60
1135;DHT22;556;53.550;10.048;2022-09-16T05:33:16;13.70;57.50
1135;DHT22;556;53.550;10.048;2022-09-16T05:35:45;13.70;57.50
1135;DHT22;556;53.550;10.048;2022-09-16T05:38:12;13.70;57.20
1135;DHT22;556;53.550;10.048;2022-09-16T05:40:39;13.90;57.30
1135;DHT22;556;53.550;10.048;2022-09-16T05:43:06;13.90;57.60
1135;DHT22;556;53.550;10.048;2022-09-16T05:45:34;14.00;57.00
1135;DHT22;556;53.550;10.048;2022-09-16T05:48:01;14.00;57.30
1135;DHT22;556;53.550;10.048;2022-09-16T05:50:28;14.10;57.20
1135;DHT22;556;53.550;10.048;2022-09-16T05:52:57;14.20;57.40
1135;DHT22;556;53.550;10.048;2022-09-16T05:55:24;14.20;57.40
1135;DHT22;556;53.550;10.048;2022-09-16T05:57:51;14.20;57.30
1135;DHT22;556;53.550;10.048;2022-09-16T06:00:18;14.20;57.30
1135;DHT22;556;53.550;10.048;2022-09-16T06:02:46;14.20;56.80
1135;DHT22;556;53.550;10.048;2022-09-16T06:05:14;14.20;57.30
1135;DHT22;556;53.550;10.048;2022-09-16T06:07:41;14.20;57.40
1135;DHT22;556;53.550;10.048;2022-09-16T06:10:09;14.30;57.50
1135;DHT22;556;53.550;10.048;2022-09-16T06:12:36;14.40;57.00
1135;DHT22;556;53.550;10.048;2022-09-16T06:15:04;14.30;56.90
1135;DHT22;556;53.550;10.048;2022-09-16T06:17:32;14.40;57.40
1135;DHT22;556;53.550;10.048;2022-09-16T06:19:59;14.40;57.40
1135;DHT22;556;53.550;10.048;2022-09-16T06:22:29;14.40;57.40
1135;DHT22;556;53.550;10.048;2022-09-16T06:24:56;14.40;57.00
1135;DHT22;556;53.550;10.048;2022-09-16T06:27:24;14.50;57.50
1135;DHT22;556;53.550;10.048;2022-09-16T06:29:52;14.50;57.40
1135;DHT22;556;53.550;10.048;2022-09-16T06:32:19;14.60;57.40
1135;DHT22;556;53.550;10.048;2022-09-16T06:34:46;14.60;56.90
1135;DHT22;556;53.550;10.048;2022-09-16T06:37:13;14.70;56.90
1135;DHT22;556;53.550;10.048;2022-09-16T06:39:40;14.70;57.40
1135;DHT22;556;53.550;10.048;2022-09-16T06:42:07;14.90;56.90
1135;DHT22;556;53.550;10.048;2022-09-16T06:44:41;14.90;56.70
1135;DHT22;556;53.550;10.048;2022-09-16T06:47:08;15.00;56.60
1135;DHT22;556;53.550;10.048;2022-09-16T06:49:35;14.90;56.60
1135;DHT22;556;53.550;10.048;2022-09-16T06:52:02;15.00;56.70
1135;DHT22;556;53.550;10.048;2022-09-16T06:54:29;15.00;57.20
1135;DHT22;556;53.550;10.048;2022-09-16T06:56:56;15.00;57.20
1135;DHT22;556;53.550;10.048;2022-09-16T06:59:25;15.10;56.80
1135;DHT22;556;53.550;10.048;2022-09-16T07:01:53;15.10;57.20
1135;DHT22;556;53.550;10.048;2022-09-16T07:04:20;15.20;56.90
1135;DHT22;556;53.550;10.048;2022-09-16T07:06:47;15.30;56.80
1135;DHT22;556;53.550;10.048;2022-09-16T07:09:15;15.40;56.80
1135;DHT22;556;53.550;10.048;2022-09-16T07:11:42;15.70;56.60
1135;DHT22;556;53.550;10.048;2022-09-16T07:14:10;15.80;56.30
1135;DHT22;556;53.550;10.048;2022-09-16T07:16:37;15.90;56.30
1135;DHT22;556;53.550;10.048;2022-09-16T07:19:05;15.90;56.40
1135;DHT22;556;53.550;10.048;2022-09-16T07:21:32;16.00;56.40
1135;DHT22;556;53.550;10.048;2022-09-16T07:24:01;16.10;56.20
1135;DHT22;556;53.550;10.048;2022-09-16T07:26:29;16.10;56.20
1135;DHT22;556;53.550;10.048;2022-09-16T07:28:58;16.00;56.20
1135;DHT22;556;53.550;10.048;2022-09-16T07:31:28;16.10;56.20
1135;DHT22;556;53.550;10.048;2022-09-16T07:33:56;16.20;56.30
1135;DHT22;556;53.550;10.048;2022-09-16T07:36:26;16.20;56.10
1135;DHT22;556;53.550;10.048;2022-09-16T07:38:54;16.20;56.10
1135;DHT22;556;53.550;10.048;2022-09-16T07:41:25;16.20;56.00
1135;DHT22;556;53.550;10.048;2022-09-16T07:43:53;16.20;56.00
1135;DHT22;556;53.550;10.048;2022-09-16T07:46:20;16.20;56.10
1135;DHT22;556;53.550;10.048;2022-09-16T07:48:48;16.30;56.00
1135;DHT22;556;53.550;10.048;2022-09-16T07:51:18;16.40;56.00
1135;DHT22;556;53.550;10.048;2022-09-16T07:53:47;16.50;55.80
1135;DHT22;556;53.550;10.048;2022-09-16T07:56:16;16.60;55.80
1135;DHT22;556;53.550;10.048;2022-09-16T07:58:45;16.70;55.80
1135;DHT22;556;53.550;10.048;2022-09-16T08:01:14;16.70;55.70
1135;DHT22;556;53.550;10.048;2022-09-16T08:03:42;16.80;55.50
1135;DHT22;556;53.550;10.048;2022-09-16T08:08:39;17.20;55.50
1135;DHT22;556;53.550;10.048;2022-09-16T08:11:08;17.40;55.30
1135;DHT22;556;53.550;10.048;2022-09-16T08:13:37;17.50;54.80
1135;DHT22;556;53.550;10.048;2022-09-16T08:16:07;17.40;54.80
1135;DHT22;556;53.550;10.048;2022-09-16T08:18:35;17.30;54.60
1135;DHT22;556;53.550;10.048;2022-09-16T08:21:04;17.20;54.80
1135;DHT22;556;53.550;10.048;2022-09-16T08:23:32;16.90;54.80
1135;DHT22;556;53.550;10.048;2022-09-16T08:26:00;16.90;54.80
1135;DHT22;556;53.550;10.048;2022-09-16T08:28:29;16.90;54.70
1135;DHT22;556;53.550;10.048;2022-09-16T08:30:58;16.80;54.50
1135;DHT22;556;53.550;10.048;2022-09-16T08:33:25;16.80;54.50
1135;DHT22;556;53.550;10.048;2022-09-16T08:35:59;16.90;54.40
1135;DHT22;556;53.550;10.048;2022-09-16T08:38:26;16.80;54.20
1135;DHT22;556;53.550;10.048;2022-09-16T08:40:57;16.90;54.70
1135;DHT22;556;53.550;10.048;2022-09-16T08:43:34;17.00;54.00
1135;DHT22;556;53.550;10.048;2022-09-16T08:46:07;17.10;54.50
1135;DHT22;556;53.550;10.048;2022-09-16T08:48:43;17.40;53.80
1135;DHT22;556;53.550;10.048;2022-09-16T08:51:16;17.50;54.10
1135;DHT22;556;53.550;10.048;2022-09-16T08:53:47;17.60;54.00
1135;DHT22;556;53.550;10.048;2022-09-16T08:56:18;17.80;53.30
1135;DHT22;556;53.550;10.048;2022-09-16T08:58:49;17.80;53.70
1135;DHT22;556;53.550;10.048;2022-09-16T09:01:22;17.90;53.10
1135;DHT22;556;53.550;10.048;2022-09-16T09:03:50;18.20;52.90
1135;DHT22;556;53.550;10.048;2022-09-16T09:06:29;18.20;52.50
1135;DHT22;556;53.550;10.048;2022-09-16T09:09:13;18.20;52.90
1135;DHT22;556;53.550;10.048;2022-09-16T09:11:48;18.10;52.90
1135;DHT22;556;53.550;10.048;2022-09-16T09:14:28;18.00;52.50
1135;DHT22;556;53.550;10.048;2022-09-16T09:17:04;18.00;52.50
1135;DHT22;556;53.550;10.048;2022-09-16T09:19:43;18.20;52.60
1135;DHT22;556;53.550;10.048;2022-09-16T09:22:22;18.30;52.20
1135;DHT22;556;53.550;10.048;2022-09-16T09:25:13;18.40;52.20
1135;DHT22;556;53.550;10.048;2022-09-16T09:28:03;18.50;52.10
1135;DHT22;556;53.550;10.048;2022-09-16T09:30:37;18.20;51.60
1135;DHT22;556;53.550;10.048;2022-09-16T09:33:15;18.10;51.60
1135;DHT22;556;53.550;10.048;2022-09-16T09:35:57;17.20;52.20
1135;DHT22;556;53.550;10.048;2022-09-16T09:38:50;16.80;52.60
1135;DHT22;556;53.550;10.048;2022-09-16T09:41:22;16.70;53.20
1135;DHT22;556;53.550;10.048;2022-09-16T09:43:54;16.00;53.30
1135;DHT22;556;53.550;10.048;2022-09-16T09:46:28;15.70;53.40
1135;DHT22;556;53.550;10.048;2022-09-16T09:49:04;15.60;54.00
1135;DHT22;556;53.550;10.048;2022-09-16T09:51:36;15.30;53.80
1135;DHT22;556;53.550;10.048;2022-09-16T09:54:17;15.40;53.80
1135;DHT22;556;53.550;10.048;2022-09-16T09:56:47;15.40;54.30
1135;DHT22;556;53.550;10.048;2022-09-16T09:59:24;15.60;53.50
1135;DHT22;556;53.550;10.048;2022-09-16T10:01:57;15.70;53.20
1135;DHT22;556;53.550;10.048;2022-09-16T10:04:26;15.80;53.10
1135;DHT22;556;53.550;10.048;2022-09-16T10:06:57;16.00;53.00
1135;DHT22;556;53.550;10.048;2022-09-16T10:09:24;16.30;52.70
1135;DHT22;556;53.550;10.048;2022-09-16T10:11:53;16.40;52.50
1135;DHT22;556;53.550;10.048;2022-09-16T10:14:24;16.70;52.40
1135;DHT22;556;53.550;10.048;2022-09-16T10:16:52;16.90;52.70
1135;DHT22;556;53.550;10.048;2022-09-16T10:19:23;17.50;51.90
1135;DHT22;556;53.550;10.048;2022-09-16T10:21:52;17.70;51.60
1135;DHT22;556;53.550;10.048;2022-09-16T10:24:28;17.70;52.00
1135;DHT22;556;53.550;10.048;2022-09-16T10:26:56;17.70;51.60
1135;DHT22;556;53.550;10.048;2022-09-16T10:29:24;17.70;52.10
1135;DHT22;556;53.550;10.048;2022-09-16T10:31:51;17.80;51.60
1135;DHT22;556;53.550;10.048;2022-09-16T10:34:25;17.90;51.60
1135;DHT22;556;53.550;10.048;2022-09-16T10:37:02;18.00;52.00
1135;DHT22;556;53.550;10.048;2022-09-16T10:39:31;18.10;51.80
1135;DHT22;556;53.550;10.048;2022-09-16T10:41:59;18.20;51.00
1135;DHT22;556;53.550;10.048;2022-09-16T10:44:27;18.40;51.00
1135;DHT22;556;53.550;10.048;2022-09-16T10:46:57;18.50;51.00
1135;DHT22;556;53.550;10.048;2022-09-16T10:52:17;18.90;50.50
1135;DHT22;556;53.550;10.048;2022-09-16T10:54:45;18.90;50.90
1135;DHT22;556;53.550;10.048;2022-09-16T10:57:23;19.00;50.70
1135;DHT22;556;53.550;10.048;2022-09-16T10:59:59;19.20;50.10
1135;DHT22;556;53.550;10.048;2022-09-16T11:02:48;19.20;50.40
1135;DHT22;556;53.550;10.048;2022-09-16T11:05:28;19.50;49.70
1135;DHT22;556;53.550;10.048;2022-09-16T11:08:10;19.70;49.20
1135;DHT22;556;53.550;10.048;2022-09-16T11:10:47;19.60;49.20
1135;DHT22;556;53.550;10.048;2022-09-16T11:13:37;19.90;49.10
1135;DHT22;556;53.550;10.048;2022-09-16T11:16:38;20.10;49.10
1135;DHT22;556;53.550;10.048;2022-09-16T11:19:15;20.30;48.90
1135;DHT22;556;53.550;10.048;2022-09-16T11:21:58;20.20;48.50
1135;DHT22;556;53.550;10.048;2022-09-16T11:24:54;19.90;48.40
1135;DHT22;556;53.550;10.048;2022-09-16T11:27:32;18.30;48.70
1135;DHT22;556;53.550;10.048;2022-09-16T11:30:07;17.30;49.60
1135;DHT22;556;53.550;10.048;2022-09-16T11:35:58;16.20;50.60
1135;DHT22;556;53.550;10.048;2022-09-16T11:38:36;16.10;51.30
1135;DHT22;556;53.550;10.048;2022-09-16T11:41:09;16.30;50.60
1135;DHT22;556;53.550;10.048;2022-09-16T11:44:09;16.50;50.40
1135;DHT22;556;53.550;10.048;2022-09-16T11:46:45;16.70;50.70
1135;DHT22;556;53.550;10.048;2022-09-16T11:49:29;17.00;50.40
1135;DHT22;556;53.550;10.048;2022-09-16T11:52:08;17.20;50.10
1135;DHT22;556;53.550;10.048;2022-09-16T11:57:38;17.50;49.60
1135;DHT22;556;53.550;10.048;2022-09-16T12:00:11;17.50;50.10
1135;DHT22;556;53.550;10.048;2022-09-16T12:02:46;17.80;49.70
1135;DHT22;556;53.550;10.048;2022-09-16T12:05:18;17.90;49.50
1135;DHT22;556;53.550;10.048;2022-09-16T12:07:49;18.10;49.40
1135;DHT22;556;53.550;10.048;2022-09-16T12:10:22;18.50;49.40
1135;DHT22;556;53.550;10.048;2022-09-16T12:12:53;18.60;49.10
1135;DHT22;556;53.550;10.048;2022-09-16T12:15:25;18.70;49.40
1135;DHT22;556;53.550;10.048;2022-09-16T12:17:56;18.90;49.30
1135;DHT22;556;53.550;10.048;2022-09-16T12:20:28;19.00;48.60
1135;DHT22;556;53.550;10.048;2022-09-16T12:23:03;19.10;49.10
1135;DHT22;556;53.550;10.048;2022-09-16T12:25:36;19.30;48.10
1135;DHT22;556;53.550;10.048;2022-09-16T12:28:12;19.40;48.80
1135;DHT22;556;53.550;10.048;2022-09-16T12:30:43;19.60;48.10
1135;DHT22;556;53.550;10.048;2022-09-16T12:33:15;19.10;47.80
1135;DHT22;556;53.550;10.048;2022-09-16T12:35:48;17.70;49.40
1135;DHT22;556;53.550;10.048;2022-09-16T12:38:20;17.40;50.20
1135;DHT22;556;53.550;10.048;2022-09-16T12:41:01;16.90;50.60
1135;DHT22;556;53.550;10.048;2022-09-16T12:43:54;17.00;50.40
1135;DHT22;556;53.550;10.048;2022-09-16T12:46:54;17.00;50.30
1135;DHT22;556;53.550;10.048;2022-09-16T12:52:54;17.00;50.50
1135;DHT22;556;53.550;10.048;2022-09-16T12:55:42;17.20;49.90
1135;DHT22;556;53.550;10.048;2022-09-16T13:01:20;17.30;49.70
1135;DHT22;556;53.550;10.048;2022-09-16T13:03:52;17.40;50.10
1135;DHT22;556;53.550;10.048;2022-09-16T13:06:24;16.80;50.00
1135;DHT22;556;53.550;10.048;2022-09-16T13:08:53;16.40;51.20
1135;DHT22;556;53.550;10.048;2022-09-16T13:11:22;16.30;51.80
1135;DHT22;556;53.550;10.048;2022-09-16T13:13:52;16.60;52.40
1135;DHT22;556;53.550;10.048;2022-09-16T13:16:30;16.90;52.50
1135;DHT22;556;53.550;10.048;2022-09-16T13:19:22;17.30;52.60
1135;DHT22;556;53.550;10.048;2022-09-16T13:21:55;17.70;51.60
1135;DHT22;556;53.550;10.048;2022-09-16T13:24:28;17.70;51.40
1135;DHT22;556;53.550;10.048;2022-09-16T13:26:57;17.60;51.20
1135;DHT22;556;53.550;10.048;2022-09-16T13:29:39;17.40;51.40
1135;DHT22;556;53.550;10.048;2022-09-16T13:32:38;16.30;51.70
1135;DHT22;556;53.550;10.048;2022-09-16T13:35:35;16.00;51.80
1135;DHT22;556;53.550;10.048;2022-09-16T13:38:22;15.70;52.10
1135;DHT22;556;53.550;10.048;2022-09-16T13:40:57;15.60;52.50
1135;DHT22;556;53.550;10.048;2022-09-16T13:43:30;15.50;52.10
1135;DHT22;556;53.550;10.048;2022-09-16T13:48:39;15.40;52.00
1135;DHT22;556;53.550;10.048;2022-09-16T13:51:13;15.40;52.50
1135;DHT22;556;53.550;10.048;2022-09-16T13:53:45;15.20;52.20
1135;DHT22;556;53.550;10.048;2022-09-16T13:56:38;15.00;52.40
1135;DHT22;556;53.550;10.048;2022-09-16T13:59:18;14.80;52.50
1135;DHT22;556;53.550;10.048;2022-09-16T14:01:57;14.70;53.50
1135;DHT22;556;53.550;10.048;2022-09-16T14:04:50;14.50;53.00
1135;DHT22;556;53.550;10.048;2022-09-16T14:07:28;14.50;52.90
1135;DHT22;556;53.550;10.048;2022-09-16T14:09:59;14.50;53.60
1135;DHT22;556;53.550;10.048;2022-09-16T14:12:38;14.40;53.10
1135;DHT22;556;53.550;10.048;2022-09-16T14:15:12;14.30;53.10
1135;DHT22;556;53.550;10.048;2022-09-16T14:17:42;14.30;53.10
1135;DHT22;556;53.550;10.048;2022-09-16T14:20:13;14.20;53.10
1135;DHT22;556;53.550;10.048;2022-09-16T14:22:42;14.20;53.30
1135;DHT22;556;53.550;10.048;2022-09-16T14:25:28;14.20;53.70
1135;DHT22;556;53.550;10.048;2022-09-16T14:28:23;14.10;53.30
1135;DHT22;556;53.550;10.048;2022-09-16T14:30:53;14.00;53.30
1135;DHT22;556;53.550;10.048;2022-09-16T14:33:26;14.00;53.30
1135;DHT22;556;53.550;10.048;2022-09-16T14:35:57;14.00;53.40
1135;DHT22;556;53.550;10.048;2022-09-16T14:38:31;14.00;53.40
1135;DHT22;556;53.550;10.048;2022-09-16T14:40:59;14.10;53.50
1135;DHT22;556;53.550;10.048;2022-09-16T14:43:26;14.00;53.90
1135;DHT22;556;53.550;10.048;2022-09-16T14:45:55;14.00;53.60
1135;DHT22;556;53.550;10.048;2022-09-16T14:48:29;14.10;53.60
1135;DHT22;556;53.550;10.048;2022-09-16T14:50:58;14.10;53.70
1135;DHT22;556;53.550;10.048;2022-09-16T14:53:28;14.00;53.60
1135;DHT22;556;53.550;10.048;2022-09-16T14:55:56;14.00;53.70
1135;DHT22;556;53.550;10.048;2022-09-16T14:58:26;14.00;53.90
1135;DHT22;556;53.550;10.048;2022-09-16T15:00:57;14.00;54.40
1135;DHT22;556;53.550;10.048;2022-09-16T15:03:30;14.00;54.00
1135;DHT22;556;53.550;10.048;2022-09-16T15:06:04;14.00;54.10
1135;DHT22;556;53.550;10.048;2022-09-16T15:08:37;14.00;54.10
1135;DHT22;556;53.550;10.048;2022-09-16T15:11:11;14.10;54.60
1135;DHT22;556;53.550;10.048;2022-09-16T15:13:40;14.10;54.60
1135;DHT22;556;53.550;10.048;2022-09-16T15:16:10;14.10;54.40
1135;DHT22;556;53.550;10.048;2022-09-16T15:18:40;14.10;54.60
1135;DHT22;556;53.550;10.048;2022-09-16T15:21:15;14.20;54.60
1135;DHT22;556;53.550;10.048;2022-09-16T15:23:46;14.30;54.60
1135;DHT22;556;53.550;10.048;2022-09-16T15:26:16;14.20;54.50
1135;DHT22;556;53.550;10.048;2022-09-16T15:28:56;14.20;55.00
1135;DHT22;556;53.550;10.048;2022-09-16T15:31:31;14.20;54.70
1135;DHT22;556;53.550;10.048;2022-09-16T15:34:02;14.20;54.80
1135;DHT22;556;53.550;10.048;2022-09-16T15:36:36;14.20;55.60
1135;DHT22;556;53.550;10.048;2022-09-16T15:39:04;14.30;55.20
1135;DHT22;556;53.550;10.048;2022-09-16T15:41:31;14.40;55.40
1135;DHT22;556;53.550;10.048;2022-09-16T15:43:59;14.40;55.90
1135;DHT22;556;53.550;10.048;2022-09-16T15:46:27;14.60;55.70
1135;DHT22;556;53.550;10.048;2022-09-16T15:48:56;14.60;55.50
1135;DHT22;556;53.550;10.048;2022-09-16T15:51:31;14.70;55.90
1135;DHT22;556;53.550;10.048;2022-09-16T15:54:06;14.80;55.60
1135;DHT22;556;53.550;10.048;2022-09-16T15:56:53;14.80;55.70
1135;DHT22;556;53.550;10.048;2022-09-16T15:59:27;14.80;55.90
1135;DHT22;556;53.550;10.048;2022-09-16T16:01:58;14.80;56.10
1135;DHT22;556;53.550;10.048;2022-09-16T16:04:29;14.70;56.20
1135;DHT22;556;53.550;10.048;2022-09-16T16:06:57;14.80;56.30
1135;DHT22;556;53.550;10.048;2022-09-16T16:09:38;14.70;56.20
1135;DHT22;556;53.550;10.048;2022-09-16T16:12:09;14.80;56.30
1135;DHT22;556;53.550;10.048;2022-09-16T16:14:38;14.80;56.40
1135;DHT22;556;53.550;10.048;2022-09-16T16:17:07;14.80;56.50
1135;DHT22;556;53.550;10.048;2022-09-16T16:19:34;14.80;57.00
1135;DHT22;556;53.550;10.048;2022-09-16T16:22:04;14.90;57.10
1135;DHT22;556;53.550;10.048;2022-09-16T16:27:00;14.90;56.90
1135;DHT22;556;53.550;10.048;2022-09-16T16:29:27;15.00;57.40
1135;DHT22;556;53.550;10.048;2022-09-16T16:32:02;15.10;57.50
1135;DHT22;556;53.550;10.048;2022-09-16T16:34:34;15.10;57.00
1135;DHT22;556;53.550;10.048;2022-09-16T16:37:03;15.10;57.00
1135;DHT22;556;53.550;10.048;2022-09-16T16:41:59;15.10;57.00
1135;DHT22;556;53.550;10.048;2022-09-16T16:44:27;15.20;57.00
1135;DHT22;556;53.550;10.048;2022-09-16T16:46:55;15.30;56.90
1135;DHT22;556;53.550;10.048;2022-09-16T16:49:23;15.30;57.30
1135;DHT22;556;53.550;10.048;2022-09-16T16:51:51;15.40;57.00
1135;DHT22;556;53.550;10.048;2022-09-16T16:54:20;15.50;57.50
1135;DHT22;556;53.550;10.048;2022-09-16T16:56:47;15.50;57.50
1135;DHT22;556;53.550;10.048;2022-09-16T16:59:16;15.60;57.50
1135;DHT22;556;53.550;10.048;2022-09-16T17:01:46;15.60;57.10
1135;DHT22;556;53.550;10.048;2022-09-16T17:04:13;15.70;57.50
1135;DHT22;556;53.550;10.048;2022-09-16T17:06:41;15.80;57.50
1135;DHT22;556;53.550;10.048;2022-09-16T17:09:08;15.80;57.00
1135;DHT22;556;53.550;10.048;2022-09-16T17:11:41;15.90;57.00
1135;DHT22;556;53.550;10.048;2022-09-16T17:14:17;16.00;58.10
1135;DHT22;556;53.550;10.048;2022-09-16T17:16:44;16.00;57.40